Time;durP1;ratioP1;P1;durP2;ratioP2;P2;SDS_P1;SDS_P2;PMS_P1;PMS_P2;Temp;Humidity;BMP_temperature;BMP_pressure;BME280_temperature;BME280_humidity;BME280_pressure;Samples;Min_cycle;Max_cycle;Signal;HPM_P1;HPM_P2
2021/06/11 00:00:20;;;;;;;11.50;8.05;;;;;;;14.73;66.42;100406.41;2020439;87;27580;-57
2021/06/11 00:03:24;;;;;;;10.70;9.20;;;;;;;14.69;66.42;100400.37;2066148;86;27554;-54
2021/06/11 00:06:25;;;;;;;10.55;8.38;;;;;;;14.66;66.56;100398.30;2066157;86;31249;-56
2021/06/11 00:09:27;;;;;;;8.48;7.58;;;;;;;14.62;66.61;100390.90;2066240;86;33011;-56
2021/06/11 00:12:29;;;;;;;9.00;8.10;;;;;;;14.58;66.68;100394.75;2067571;86;29401;-56
2021/06/11 00:15:31;;;;;;;12.82;8.83;;;;;;;14.56;66.90;100397.56;2051118;86;27491;-57
2021/06/11 00:18:33;;;;;;;11.22;8.18;;;;;;;14.53;66.98;100396.91;2071464;86;29278;-55
2021/06/11 00:21:34;;;;;;;10.23;7.80;;;;;;;14.50;67.00;100395.75;2069077;86;31955;-56
2021/06/11 00:24:36;;;;;;;10.75;7.95;;;;;;;14.48;67.32;100389.59;2070654;85;33268;-57
2021/06/11 00:27:38;;;;;;;8.35;7.30;;;;;;;14.44;67.15;100397.86;2071348;86;30210;-56
2021/06/11 00:30:40;;;;;;;11.43;7.95;;;;;;;14.42;67.52;100396.24;2056424;86;27536;-55
2021/06/11 00:33:42;;;;;;;11.53;8.30;;;;;;;14.41;67.40;100395.36;2056151;86;28777;-58
2021/06/11 00:36:43;;;;;;;17.07;9.13;;;;;;;14.41;67.75;100398.06;2046329;85;31648;-57
2021/06/11 00:39:45;;;;;;;10.60;8.20;;;;;;;14.39;67.82;100395.09;2033238;86;33072;-57
2021/06/11 00:42:47;;;;;;;11.25;7.90;;;;;;;14.39;67.89;100392.39;2033082;86;30186;-59
2021/06/11 00:45:49;;;;;;;10.08;8.40;;;;;;;14.39;67.96;100393.73;2002492;88;27525;-56
2021/06/11 00:48:51;;;;;;;12.07;8.63;;;;;;;14.40;68.06;100388.23;2002385;88;28635;-56
2021/06/11 00:51:53;;;;;;;11.55;8.95;;;;;;;14.42;68.10;100393.05;2002163;88;31151;-57
2021/06/11 00:54:55;;;;;;;13.60;9.00;;;;;;;14.43;68.08;100391.24;2002350;88;33256;-56
2021/06/11 00:57:58;;;;;;;11.68;8.68;;;;;;;14.46;68.37;100388.81;2002350;88;29381;-58
2021/06/11 01:00:59;;;;;;;13.90;8.73;;;;;;;14.48;68.57;100386.89;2002451;88;27956;-56
2021/06/11 01:04:01;;;;;;;11.40;8.55;;;;;;;14.50;68.75;100375.53;2025435;86;29588;-56
2021/06/11 01:07:03;;;;;;;13.48;8.88;;;;;;;14.52;68.66;100375.80;2024982;87;31003;-58
2021/06/11 01:10:06;;;;;;;12.75;9.03;;;;;;;14.54;68.69;100373.03;2025307;87;33005;-61
2021/06/11 01:13:08;;;;;;;14.85;9.38;;;;;;;14.55;68.85;100374.27;2039520;87;29455;-57
2021/06/11 01:16:10;;;;;;;16.80;10.05;;;;;;;14.57;68.67;100374.15;2039628;87;27489;-57
2021/06/11 01:19:13;;;;;;;14.07;9.43;;;;;;;14.57;69.01;100368.29;2039529;87;28946;-56
2021/06/11 01:22:44;;;;;;;11.88;9.43;;;;;;;14.57;68.93;100370.10;2039289;87;30505;-56
2021/06/11 01:25:54;;;;;;;15.85;10.93;;;;;;;14.56;69.31;100366.56;2001432;88;33168;-57
2021/06/11 01:29:13;;;;;;;15.13;10.82;;;;;;;14.56;69.53;100360.31;2038724;87;29609;-57
2021/06/11 01:32:15;;;;;;;15.83;11.38;;;;;;;14.54;69.50;100363.59;2038553;87;27525;-58
2021/06/11 01:35:33;;;;;;;13.18;10.65;;;;;;;14.53;69.78;100360.52;2038756;87;28685;-59
2021/06/11 01:38:38;;;;;;;16.27;12.45;;;;;;;14.53;69.84;100361.36;2095015;84;32364;-57
2021/06/11 01:41:40;;;;;;;15.70;11.50;;;;;;;14.54;69.79;100363.09;2101220;84;33921;-57
2021/06/11 01:44:43;;;;;;;17.20;13.10;;;;;;;14.56;69.87;100371.09;2101235;84;30281;-57
2021/06/11 01:47:48;;;;;;;16.62;12.70;;;;;;;14.59;70.04;100366.36;2101285;84;27577;-57
2021/06/11 01:50:51;;;;;;;19.12;12.15;;;;;;;14.62;70.19;100361.73;2072821;84;31287;-57
2021/06/11 01:53:53;;;;;;;17.25;12.50;;;;;;;14.66;70.37;100366.82;2068406;85;31231;-58
2021/06/11 01:56:55;;;;;;;17.07;12.65;;;;;;;14.69;70.41;100357.22;2071293;84;33824;-57
2021/06/11 01:59:57;;;;;;;15.08;12.45;;;;;;;14.73;70.60;100359.22;2101233;84;30276;-61
2021/06/11 02:02:59;;;;;;;20.97;18.73;;;;;;;14.78;70.48;100361.14;2077730;84;27568;-59
2021/06/11 02:06:01;;;;;;;23.00;18.35;;;;;;;14.80;70.50;100355.17;2101235;84;28779;-61
2021/06/11 02:09:04;;;;;;;21.30;18.95;;;;;;;14.83;70.49;100357.62;2075205;84;31741;-60
2021/06/11 02:12:09;;;;;;;21.02;17.27;;;;;;;14.85;70.38;100362.44;2067972;85;33086;-58
2021/06/11 02:15:12;;;;;;;20.37;17.15;;;;;;;14.86;70.29;100354.73;2068449;85;29516;-61
2021/06/11 02:18:15;;;;;;;19.70;15.85;;;;;;;14.88;70.43;100351.95;2085053;84;27608;-62
2021/06/11 02:21:18;;;;;;;19.00;15.55;;;;;;;14.89;70.31;100352.34;2101335;84;28774;-57
2021/06/11 02:24:20;;;;;;;21.80;15.03;;;;;;;14.88;70.34;100354.16;2101323;84;31245;-58
2021/06/11 02:27:23;;;;;;;19.02;15.25;;;;;;;14.89;70.24;100357.23;2101293;84;33801;-61
2021/06/11 02:30:25;;;;;;;16.85;13.45;;;;;;;14.89;70.19;100362.63;2101006;84;30175;-60
2021/06/11 02:33:27;;;;;;;15.45;13.15;;;;;;;14.89;70.24;100360.43;2101338;84;27547;-60
2021/06/11 02:36:31;;;;;;;17.20;13.43;;;;;;;14.90;70.27;100360.78;2102252;83;29556;-61
2021/06/11 02:39:32;;;;;;;16.20;12.07;;;;;;;14.90;70.31;100354.04;2092765;84;32085;-61
2021/06/11 02:42:35;;;;;;;14.05;12.37;;;;;;;14.89;70.34;100350.98;2063927;86;33931;-60
2021/06/11 02:45:57;;;;;;;18.00;12.53;;;;;;;14.91;70.38;100351.72;2064110;86;29391;-60
2021/06/11 02:49:28;;;;;;;17.10;11.97;;;;;;;14.92;70.58;100351.25;2070035;84;27497;-62
2021/06/11 02:52:30;;;;;;;17.82;12.65;;;;;;;14.94;70.61;100358.77;2109136;84;28649;-57
2021/06/11 02:55:34;;;;;;;20.02;13.13;;;;;;;14.96;70.70;100356.34;2109137;84;31102;-58
2021/06/11 02:58:52;;;;;;;17.62;11.80;;;;;;;15.01;70.73;100364.11;2109117;84;33880;-57
2021/06/11 03:01:57;;;;;;;16.37;11.80;;;;;;;15.06;70.71;100360.62;2108918;84;29391;-58
2021/06/11 03:05:00;;;;;;;17.98;13.50;;;;;;;15.17;70.82;100359.91;2068237;84;27816;-60
2021/06/11 03:08:07;;;;;;;15.00;12.03;;;;;;;15.17;70.82;100359.91;2064522;86;29392;-57
2021/06/11 03:11:15;;;;;;;18.98;13.28;;;;;;;15.23;70.78;100368.91;2064067;86;30638;-58
2021/06/11 03:14:17;;;;;;;16.52;12.82;;;;;;;15.29;70.79;100365.80;2064510;86;33801;-57
2021/06/11 03:17:22;;;;;;;17.45;13.45;;;;;;;15.39;70.79;100364.69;2064530;86;30078;-57
2021/06/11 03:20:29;;;;;;;16.80;13.85;;;;;;;15.48;70.84;100360.49;2064742;86;27634;-57
2021/06/11 03:23:50;;;;;;;20.60;14.75;;;;;;;15.57;70.89;100357.14;2064100;84;28730;-57
2021/06/11 03:27:06;;;;;;;17.23;14.10;;;;;;;15.68;70.79;100357.73;2064731;84;31079;-57
2021/06/11 03:30:10;;;;;;;18.30;14.80;;;;;;;15.78;70.76;100358.84;2063885;86;33027;-58
2021/06/11 03:33:14;;;;;;;17.00;15.20;;;;;;;15.88;70.71;100361.78;2063924;86;29383;-58
2021/06/11 03:36:38;;;;;;;16.87;14.68;;;;;;;16.00;70.71;100362.73;2065192;84;27516;-57
2021/06/11 03:39:46;;;;;;;21.27;14.60;;;;;;;16.10;70.63;100365.16;2071700;85;28967;-57
2021/06/11 03:42:49;;;;;;;16.60;14.87;;;;;;;16.21;70.60;100358.11;2071432;86;31116;-57
2021/06/11 03:45:52;;;;;;;21.40;15.50;;;;;;;16.31;70.45;100359.16;2071466;86;33171;-57
2021/06/11 03:48:54;;;;;;;18.20;14.45;;;;;;;16.45;70.39;100364.06;2071437;85;29643;-57
2021/06/11 03:51:57;;;;;;;21.05;14.20;;;;;;;16.58;70.39;100359.94;2071521;85;27779;-56
2021/06/11 03:55:03;;;;;;;17.95;14.13;;;;;;;16.72;70.22;100351.66;2073111;85;28709;-56
2021/06/11 03:58:09;;;;;;;23.07;15.28;;;;;;;16.90;70.11;100358.90;2076725;85;31149;-59
2021/06/11 04:01:24;;;;;;;17.98;15.40;;;;;;;17.07;69.88;100358.99;2076223;85;33164;-57
2021/06/11 04:04:26;;;;;;;25.97;15.40;;;;;;;17.24;69.64;100354.12;2077709;85;30230;-60
2021/06/11 04:07:36;;;;;;;19.95;14.85;;;;;;;17.41;69.44;100353.69;2077448;85;27491;-59
2021/06/11 04:10:53;;;;;;;18.10;13.88;;;;;;;17.65;69.19;100364.08;2045472;86;28831;-58
2021/06/11 04:13:58;;;;;;;22.65;14.68;;;;;;;17.95;68.69;100332.33;2070889;86;31895;-57
2021/06/11 04:17:02;;;;;;;23.00;15.05;;;;;;;17.95;68.69;100332.33;2073985;85;34970;-57
2021/06/11 04:20:05;;;;;;;20.52;14.70;;;;;;;18.26;68.23;100352.08;2077525;85;29447;-57
2021/06/11 04:23:08;;;;;;;20.55;15.05;;;;;;;18.38;67.80;100357.34;2077608;85;27456;-58
2021/06/11 04:26:10;;;;;;;26.30;14.78;;;;;;;18.47;67.45;100353.52;2077520;85;28720;-57
2021/06/11 04:29:16;;;;;;;19.77;14.47;;;;;;;18.56;67.25;100351.91;2077449;85;31878;-58
2021/06/11 04:32:18;;;;;;;22.13;14.53;;;;;;;18.68;67.04;100359.02;2074100;85;32985;-59
2021/06/11 04:35:27;;;;;;;17.80;13.28;;;;;;;18.80;66.77;100355.78;2071172;86;29542;-57
2021/06/11 04:38:51;;;;;;;18.52;14.10;;;;;;;18.94;66.60;100354.16;2067528;84;27591;-57
2021/06/11 04:41:53;;;;;;;15.08;12.55;;;;;;;19.11;66.16;100353.22;2064557;86;30127;-57
2021/06/11 04:44:55;;;;;;;15.93;12.33;;;;;;;19.39;66.03;100357.16;2065188;84;31863;-57
2021/06/11 04:47:56;;;;;;;18.07;11.10;;;;;;;20.03;66.15;100355.74;2043304;86;32998;-58
2021/06/11 04:50:58;;;;;;;15.55;12.43;;;;;;;21.04;65.76;100345.34;2092179;84;30208;-58
2021/06/11 04:54:00;;;;;;;15.53;11.05;;;;;;;22.08;64.55;100343.70;2100409;84;27485;-58
2021/06/11 04:57:03;;;;;;;15.20;11.30;;;;;;;23.17;63.28;100345.59;2064449;86;28720;-67
2021/06/11 05:00:09;;;;;;;14.43;10.80;;;;;;;23.85;61.53;100339.13;2064436;86;31169;-57
2021/06/11 05:03:11;;;;;;;27.87;12.35;;;;;;;24.46;60.60;100347.29;2064514;86;34508;-57
2021/06/11 05:06:14;;;;;;;14.73;10.60;;;;;;;25.31;59.28;100345.40;2064544;84;29951;-58
2021/06/11 05:09:16;;;;;;;11.57;10.18;;;;;;;26.04;57.47;100348.21;2063903;86;27641;-58
2021/06/11 05:12:19;;;;;;;14.43;9.78;;;;;;;26.80;56.96;100347.23;2063840;86;28724;-56
2021/06/11 05:15:21;;;;;;;12.37;9.48;;;;;;;27.53;54.82;100342.73;2100105;84;31173;-56
2021/06/11 05:18:26;;;;;;;15.08;9.08;;;;;;;28.07;53.32;100342.67;2109036;84;32946;-68
2021/06/11 05:21:28;;;;;;;13.65;9.43;;;;;;;28.49;51.97;100346.12;2109409;84;29451;-71
2021/06/11 05:24:31;;;;;;;11.63;8.48;;;;;;;28.92;50.91;100350.88;2086026;84;27576;-69
2021/06/11 05:31:00;;;;;;;11.25;8.30;;;;;;;29.71;49.36;100347.64;1787414;99;28058;-62
2021/06/11 05:33:57;;;;;;;10.72;8.45;;;;;;;30.22;47.81;100340.12;1783693;99;30541;-62
2021/06/11 05:36:59;;;;;;;14.33;8.08;;;;;;;30.68;46.66;100342.78;1771184;99;30141;-62
2021/06/11 05:40:01;;;;;;;12.07;8.75;;;;;;;30.97;46.03;100342.09;1748232;101;27691;-62
2021/06/11 05:43:03;;;;;;;15.13;9.18;;;;;;;31.31;44.77;100338.86;1729990;101;29583;-57
2021/06/11 05:46:05;;;;;;;13.55;8.48;;;;;;;31.57;43.49;100338.55;1736802;101;31809;-57
2021/06/11 05:49:08;;;;;;;11.35;7.37;;;;;;;31.74;42.44;100336.20;1723304;101;32991;-57
2021/06/11 05:52:10;;;;;;;7.92;7.12;;;;;;;31.98;42.32;100337.42;1718394;101;29334;-57
2021/06/11 05:55:14;;;;;;;8.23;7.42;;;;;;;32.46;41.89;100335.36;1736948;101;27647;-60
2021/06/11 05:58:16;;;;;;;;;;;;;;;32.98;41.39;100337.23;1751907;101;28762;-57
2021/06/11 06:01:18;;;;;;;8.48;7.60;;;;;;;33.48;39.64;100324.80;1746752;101;31221;-58
2021/06/11 06:04:19;;;;;;;8.40;7.60;;;;;;;33.87;38.86;100326.01;1742472;101;33858;-58
2021/06/11 06:07:22;;;;;;;9.18;6.67;;;;;;;34.08;37.05;100334.48;1819032;87;29307;-58
2021/06/11 06:10:24;;;;;;;8.30;7.50;;;;;;;34.13;37.50;100328.75;2065258;85;27529;-58
2021/06/11 06:14:35;;;;;;;12.53;8.08;;;;;;;34.36;36.75;100327.51;2070468;85;29625;-65
2021/06/11 06:19:56;;;;;;;;;;;;;;;34.49;35.56;100336.26;1741181;100;30567;-57
2021/06/11 06:22:58;;;;;;;8.98;6.85;;;;;;;34.54;34.49;100336.38;1709574;104;29349;-57
2021/06/11 06:26:00;;;;;;;9.33;7.03;;;;;;;34.50;34.88;100343.49;1721770;103;28009;-60
2021/06/11 06:29:02;;;;;;;9.93;7.28;;;;;;;34.68;33.80;100345.93;1721754;103;29608;-62
2021/06/11 06:32:04;;;;;;;9.08;6.87;;;;;;;34.77;33.88;100343.14;1723241;103;31080;-62
2021/06/11 06:35:09;;;;;;;8.40;7.60;;;;;;;35.08;33.85;100337.03;1745406;101;33807;-62
2021/06/11 06:38:13;;;;;;;12.20;7.37;;;;;;;35.29;33.28;100336.16;1745951;100;29774;-60
2021/06/11 06:41:17;;;;;;;10.43;7.42;;;;;;;35.58;33.03;100330.20;1743319;102;27651;-63
2021/06/11 06:44:17;;;;;;;8.83;6.95;;;;;;;35.72;31.73;100325.80;1743208;102;29733;-64
2021/06/11 06:47:19;;;;;;;9.03;7.40;;;;;;;35.68;32.01;100329.59;1721855;102;31043;-62
2021/06/11 06:50:22;;;;;;;8.78;7.50;;;;;;;35.77;31.55;100334.26;1719249;102;33056;-63
2021/06/11 06:53:23;;;;;;;9.95;6.72;;;;;;;35.72;30.58;100331.38;1717969;103;29524;-63
2021/06/11 06:56:26;;;;;;;9.15;8.23;;;;;;;35.50;30.78;100333.36;1816012;85;27625;-62
2021/06/11 06:59:28;;;;;;;8.05;7.35;;;;;;;35.54;30.54;100340.16;2073968;85;29739;-62
2021/06/11 07:02:30;;;;;;;9.30;7.58;;;;;;;35.79;30.27;100336.27;2073738;85;31660;-59
2021/06/11 07:05:32;;;;;;;8.75;7.85;;;;;;;35.73;29.84;100335.86;2069228;85;32780;-59
2021/06/11 07:08:33;;;;;;;10.25;7.50;;;;;;;35.47;30.38;100341.37;2039111;87;29325;-65
2021/06/11 07:12:02;;;;;;;9.35;7.42;;;;;;;35.44;30.04;100341.28;2039869;87;27550;-63
2021/06/11 07:15:07;;;;;;;9.43;7.00;;;;;;;35.46;29.59;100337.72;2039686;87;28639;-64
2021/06/11 07:18:10;;;;;;;8.60;7.37;;;;;;;35.41;29.89;100341.76;2039698;87;31335;-62
2021/06/11 07:21:13;;;;;;;10.43;7.33;;;;;;;35.25;29.35;100344.12;2038345;86;32717;-64
2021/06/11 07:24:15;;;;;;;10.10;7.47;;;;;;;35.02;29.55;100343.54;2041697;87;29540;-59
2021/06/11 07:27:17;;;;;;;8.18;7.12;;;;;;;34.90;29.88;100351.84;2041840;87;27593;-64
2021/06/11 07:30:19;;;;;;;10.98;6.92;;;;;;;35.03;29.83;100337.45;2041366;87;28628;-62
2021/06/11 07:33:21;;;;;;;8.10;5.33;;;;;;;35.17;29.63;100342.23;2011479;87;31841;-63
2021/06/11 07:36:23;;;;;;;5.83;5.40;;;;;;;35.39;29.17;100339.75;2038594;87;33182;-64
2021/06/11 07:39:25;;;;;;;7.92;6.17;;;;;;;35.67;29.01;100335.42;2065167;85;29413;-64
2021/06/11 07:42:27;;;;;;;6.95;5.80;;;;;;;35.99;28.69;100328.92;2057039;85;27602;-59
2021/06/11 07:45:30;;;;;;;6.55;5.95;;;;;;;36.49;28.30;100332.22;2053441;86;28737;-58
2021/06/11 07:48:31;;;;;;;12.23;6.33;;;;;;;36.40;27.69;100328.97;2044714;85;31255;-62
2021/06/11 07:51:35;;;;;;;7.15;6.42;;;;;;;36.08;27.85;100337.77;2041480;87;33018;-63
2021/06/11 07:54:37;;;;;;;6.72;6.12;;;;;;;35.72;27.81;100329.98;2041931;85;29429;-60
2021/06/11 07:57:39;;;;;;;7.33;6.28;;;;;;;35.26;28.19;100333.86;2020901;88;27603;-63
2021/06/11 08:00:40;;;;;;;6.70;6.10;;;;;;;34.95;28.34;100327.50;2020856;88;28610;-60
2021/06/11 08:03:42;;;;;;;7.67;6.22;;;;;;;34.32;28.20;100333.22;2020739;88;31095;-60
2021/06/11 08:06:46;;;;;;;9.55;6.08;;;;;;;33.78;28.72;100339.35;2067738;85;33043;-61
2021/06/11 08:09:48;;;;;;;13.25;5.62;;;;;;;33.31;28.88;100339.77;2067452;85;29352;-59
2021/06/11 08:12:50;;;;;;;8.53;4.85;;;;;;;33.33;28.93;100342.31;2079201;85;27562;-59
2021/06/11 08:15:52;;;;;;;7.40;5.03;;;;;;;33.51;28.78;100333.75;2035621;87;29327;-58
2021/06/11 08:18:54;;;;;;;5.70;5.20;;;;;;;33.58;28.57;100336.78;2035561;87;32003;-59
2021/06/11 08:21:56;;;;;;;5.97;5.37;;;;;;;33.76;28.20;100342.06;2035364;87;33005;-60
2021/06/11 08:24:57;;;;;;;6.53;4.67;;;;;;;33.72;28.48;100335.25;2035578;87;29301;-59
2021/06/11 08:28:00;;;;;;;4.65;4.25;;;;;;;33.79;27.82;100340.22;2035639;87;27718;-58
2021/06/11 08:31:02;;;;;;;5.53;3.87;;;;;;;33.85;27.49;100335.66;2035540;87;28667;-58
2021/06/11 08:34:04;;;;;;;5.62;4.28;;;;;;;33.82;27.26;100330.56;2064795;84;31034;-59
2021/06/11 08:37:07;;;;;;;5.87;4.70;;;;;;;33.72;27.46;100326.92;2041650;87;33175;-59
2021/06/11 08:40:11;;;;;;;6.37;5.75;;;;;;;33.85;27.62;100324.55;2040356;85;29481;-58
2021/06/11 08:43:15;;;;;;;6.08;4.80;;;;;;;33.95;27.51;100323.50;2039817;87;27570;-58
2021/06/11 08:46:19;;;;;;;6.35;4.50;;;;;;;33.92;27.58;100327.59;2037604;87;28627;-58
2021/06/11 08:49:24;;;;;;;6.20;4.83;;;;;;;33.91;27.07;100331.45;2037673;87;31103;-58
2021/06/11 08:52:28;;;;;;;6.90;4.60;;;;;;;33.82;27.00;100331.95;2037383;87;32945;-58
2021/06/11 08:55:30;;;;;;;6.72;4.85;;;;;;;33.83;27.42;100326.70;2037690;87;29336;-63
2021/06/11 08:58:32;;;;;;;4.80;4.35;;;;;;;33.88;27.23;100325.48;2037676;87;27743;-62
2021/06/11 09:01:34;;;;;;;5.60;4.85;;;;;;;33.81;27.16;100328.34;2037418;87;29464;-61
2021/06/11 09:04:41;;;;;;;5.87;4.70;;;;;;;33.47;26.98;100327.27;2037026;87;31093;-59
2021/06/11 09:07:43;;;;;;;6.15;5.03;;;;;;;33.17;26.94;100323.75;2037084;87;33255;-58
2021/06/11 09:10:48;;;;;;;4.87;4.17;;;;;;;32.87;27.45;100327.17;2037651;87;30019;-58
2021/06/11 09:13:55;;;;;;;4.50;4.10;;;;;;;32.59;27.52;100331.68;2037235;87;45911;-57
2021/06/11 09:16:59;;;;;;;5.70;4.45;;;;;;;32.34;27.54;100333.84;2030439;87;28853;-58
2021/06/11 09:20:17;;;;;;;6.35;4.67;;;;;;;32.05;27.83;100333.25;2037622;87;31137;-57
2021/06/11 09:23:19;;;;;;;6.55;4.70;;;;;;;31.81;27.87;100330.12;2036549;87;34070;-58
2021/06/11 09:26:21;;;;;;;4.78;3.98;;;;;;;31.68;28.62;100333.73;2054200;85;29402;-57
2021/06/11 09:29:28;;;;;;;7.40;4.55;;;;;;;31.64;28.51;100333.00;2055479;85;27500;-57
2021/06/11 09:32:32;;;;;;;7.50;4.70;;;;;;;31.71;28.65;100331.63;1995591;89;28647;-59
2021/06/11 09:35:39;;;;;;;;;;;;;;;31.70;28.57;100334.05;1986828;89;31855;-66
2021/06/11 09:38:45;;;;;;;5.58;3.47;;;;;;;31.64;28.40;100331.06;1982007;87;33916;-66
2021/06/11 09:42:05;;;;;;;6.40;3.90;;;;;;;31.71;28.50;100326.93;1956079;90;29469;-66
2021/06/11 09:45:15;;;;;;;4.83;3.83;;;;;;;31.65;28.21;100330.00;2039381;86;27513;-65
2021/06/11 09:48:21;;;;;;;8.60;3.95;;;;;;;31.41;28.24;100328.75;2039553;87;30623;-60
2021/06/11 09:51:26;;;;;;;7.85;4.08;;;;;;;31.28;28.70;100323.22;2038694;87;31039;-61
2021/06/11 09:54:28;;;;;;;3.50;3.20;;;;;;;31.24;28.66;100324.19;2002346;89;33061;-60
2021/06/11 09:57:33;;;;;;;4.67;3.52;;;;;;;31.11;28.77;100322.22;2001317;88;29289;-61
2021/06/11 10:00:37;;;;;;;9.33;3.60;;;;;;;31.01;28.71;100319.03;2007003;88;27530;-62
2021/06/11 10:03:46;;;;;;;3.30;3.00;;;;;;;30.87;28.92;100315.37;2001826;89;28639;-62
2021/06/11 10:06:48;;;;;;;5.42;3.05;;;;;;;30.86;28.55;100315.05;2032263;86;31070;-62
2021/06/11 10:09:50;;;;;;;3.05;2.70;;;;;;;30.83;28.70;100311.33;2001723;89;33889;-64
2021/06/11 10:12:52;;;;;;;2.52;2.33;;;;;;;30.91;28.25;100315.28;2001831;89;30084;-63
2021/06/11 10:15:57;;;;;;;2.40;2.20;;;;;;;30.94;27.77;100312.11;1991683;88;27576;-58
2021/06/11 10:19:02;;;;;;;4.87;2.55;;;;;;;30.99;27.53;100315.07;2039550;87;28728;-58
2021/06/11 10:22:06;;;;;;;5.83;2.72;;;;;;;30.98;27.76;100306.45;2035475;87;31179;-58
2021/06/11 10:25:12;;;;;;;4.17;2.25;;;;;;;30.95;27.44;100306.86;2013670;87;33817;-61
2021/06/11 10:28:18;;;;;;;4.67;2.10;;;;;;;30.91;27.56;100300.07;2039522;87;30203;-60
2021/06/11 10:31:21;;;;;;;2.65;2.27;;;;;;;30.94;27.71;100297.41;2035078;87;27559;-58
2021/06/11 10:34:49;;;;;;;6.53;2.22;;;;;;;30.84;27.55;100290.90;2038820;87;28640;-58
2021/06/11 10:37:51;;;;;;;3.50;2.55;;;;;;;30.65;27.30;100287.88;1979318;89;31109;-60
2021/06/11 10:41:03;;;;;;;3.30;2.35;;;;;;;30.36;27.37;100287.69;2046486;85;33023;-62
2021/06/11 10:44:10;;;;;;;3.62;2.30;;;;;;;30.07;27.91;100288.29;2025964;87;29372;-66
2021/06/11 10:47:23;;;;;;;7.90;2.42;;;;;;;29.84;27.96;100286.12;2033308;86;27591;-66
2021/06/11 10:50:35;;;;;;;1.93;1.83;;;;;;;29.62;28.65;100287.29;2026503;87;28781;-67
2021/06/11 10:53:37;;;;;;;2.50;2.17;;;;;;;29.48;28.41;100295.45;2055656;86;31022;-65
2021/06/11 10:57:00;;;;;;;3.12;2.52;;;;;;;29.31;28.61;100294.88;2083705;84;33617;-65
2021/06/11 11:00:03;;;;;;;5.65;2.62;;;;;;;29.21;28.99;100278.67;2056054;86;29364;-61
2021/06/11 11:03:08;;;;;;;2.72;2.40;;;;;;;29.20;29.04;100288.55;2082411;85;27596;-61
2021/06/11 11:06:34;;;;;;;3.92;2.33;;;;;;;29.05;29.17;100291.37;2109142;84;28601;-62
2021/06/11 11:09:56;;;;;;;6.15;2.10;;;;;;;28.95;29.40;100294.46;2065010;85;31944;-62
2021/06/11 11:13:07;;;;;;;2.75;2.50;;;;;;;28.84;29.36;100296.38;2065952;84;33031;-70
2021/06/11 11:16:27;;;;;;;4.03;2.22;;;;;;;28.80;29.66;100291.25;2066899;86;29478;-60
2021/06/11 11:19:53;;;;;;;6.78;2.52;;;;;;;28.76;29.54;100298.73;2026507;87;27625;-60
2021/06/11 11:22:59;;;;;;;3.40;2.35;;;;;;;28.72;29.41;100305.66;2004336;87;28784;-60
2021/06/11 11:26:02;;;;;;;3.33;1.85;;;;;;;28.70;29.61;100300.86;2072880;85;31079;-61
2021/06/11 11:29:03;;;;;;;4.47;2.30;;;;;;;28.75;29.72;100303.38;2073419;85;32999;-61
2021/06/11 11:32:07;;;;;;;5.40;2.85;;;;;;;28.72;29.96;100302.36;2070289;84;29489;-60
2021/06/11 11:35:11;;;;;;;;;;;;;;;28.62;29.58;100307.34;2066764;86;27575;-57
2021/06/11 11:38:13;;;;;;;3.35;2.33;;;;;;;28.49;29.96;100292.88;2064691;84;28688;-58
2021/06/11 11:41:16;;;;;;;2.55;2.33;;;;;;;28.49;30.29;100301.16;2028595;86;31156;-57
2021/06/11 11:44:19;;;;;;;6.72;2.33;;;;;;;28.53;30.37;100300.27;2029283;87;33136;-58
2021/06/11 11:47:21;;;;;;;2.77;2.40;;;;;;;28.54;30.61;100300.59;2029065;87;29546;-58
2021/06/11 11:50:27;;;;;;;3.20;2.80;;;;;;;28.53;30.38;100293.38;2029137;87;27550;-58
2021/06/11 11:53:29;;;;;;;3.22;2.50;;;;;;;28.45;30.24;100289.67;2004237;87;28747;-58
2021/06/11 11:56:33;;;;;;;3.27;2.58;;;;;;;28.43;30.14;100286.80;2030534;87;31724;-58
2021/06/11 11:59:36;;;;;;;5.20;2.20;;;;;;;28.37;30.52;100291.19;2030134;87;33036;-58
2021/06/11 12:02:39;;;;;;;4.50;2.20;;;;;;;28.27;30.43;100284.59;2015048;87;29443;-60
2021/06/11 12:05:41;;;;;;;3.25;2.27;;;;;;;28.17;30.69;100287.66;2070868;84;27531;-59
2021/06/11 12:08:49;;;;;;;3.08;2.22;;;;;;;28.05;31.25;100287.75;2070459;85;28685;-58
2021/06/11 12:11:52;;;;;;;3.12;2.85;;;;;;;27.90;31.19;100282.28;2050360;86;31086;-58
2021/06/11 12:14:55;;;;;;;4.55;2.37;;;;;;;27.86;31.28;100279.57;2056276;86;33758;-57
2021/06/11 12:17:57;;;;;;;5.78;2.52;;;;;;;27.96;31.81;100284.28;2055907;86;29306;-57
2021/06/11 12:20:59;;;;;;;2.80;2.60;;;;;;;27.88;31.14;100273.36;2042687;86;27809;-59
2021/06/11 12:24:03;;;;;;;4.85;2.30;;;;;;;27.89;31.35;100279.19;2042708;87;28610;-60
2021/06/11 12:27:06;;;;;;;4.77;2.73;;;;;;;27.86;31.47;100277.69;2024310;86;31933;-58
2021/06/11 12:30:10;;;;;;;3.58;2.52;;;;;;;27.80;31.61;100274.30;2055700;85;32946;-58
2021/06/11 12:33:12;;;;;;;5.27;2.60;;;;;;;27.69;31.52;100270.13;2056661;85;29384;-61
2021/06/11 12:36:14;;;;;;;4.53;3.25;;;;;;;27.49;31.74;100273.09;2056017;86;27555;-59
2021/06/11 12:39:16;;;;;;;3.05;2.70;;;;;;;27.29;32.09;100274.47;2022834;88;28682;-61
2021/06/11 12:42:21;;;;;;;4.62;2.72;;;;;;;27.09;32.64;100271.91;2026996;87;31881;-59
2021/06/11 12:45:23;;;;;;;4.33;2.92;;;;;;;26.79;33.08;100275.91;1994291;89;33063;-58
2021/06/11 12:48:25;;;;;;;4.67;3.40;;;;;;;26.34;34.91;100283.42;2018305;87;29950;-60
2021/06/11 12:51:31;;;;;;;4.33;3.42;;;;;;;25.98;35.68;100285.80;2027221;87;27548;-58
2021/06/11 12:54:31;;;;;;;4.77;3.30;;;;;;;25.65;36.21;100281.80;2027144;87;28744;-57
2021/06/11 12:57:33;;;;;;;6.17;3.92;;;;;;;25.32;36.69;100285.41;2020265;87;30757;-59
2021/06/11 13:00:35;;;;;;;5.47;3.58;;;;;;;25.03;36.92;100286.28;2066511;86;33119;-59
2021/06/11 13:03:37;;;;;;;10.35;4.30;;;;;;;24.85;37.60;100280.98;2093676;85;29549;-59
2021/06/11 13:06:41;;;;;;;5.47;4.92;;;;;;;24.81;38.64;100282.34;2074170;84;27539;-60
2021/06/11 13:09:43;;;;;;;9.95;4.58;;;;;;;24.75;39.58;100287.64;2026585;87;29852;-60
2021/06/11 13:12:44;;;;;;;14.35;4.92;;;;;;;24.72;39.16;100281.47;2040753;87;31099;-58
2021/06/11 13:15:46;;;;;;;5.67;4.33;;;;;;;24.79;39.36;100273.95;2047967;86;33845;-59
2021/06/11 13:18:48;;;;;;;7.62;3.83;;;;;;;24.77;39.49;100276.84;2087401;85;30239;-59
2021/06/11 13:21:51;;;;;;;7.20;4.75;;;;;;;24.82;39.50;100272.25;2087489;85;27629;-60
2021/06/11 13:24:53;;;;;;;4.10;3.47;;;;;;;24.81;39.57;100280.97;2074106;85;28643;-58
2021/06/11 13:27:55;;;;;;;6.40;4.10;;;;;;;24.81;39.53;100282.34;2061036;86;31011;-59
2021/06/11 13:30:56;;;;;;;6.72;3.40;;;;;;;24.82;39.73;100278.57;2026502;87;33022;-59
2021/06/11 13:33:59;;;;;;;4.03;3.65;;;;;;;24.84;39.87;100282.50;2029445;86;29355;-58
2021/06/11 13:37:02;;;;;;;7.15;3.60;;;;;;;24.88;39.69;100290.73;2025652;86;27530;-60
2021/06/11 13:40:05;;;;;;;3.80;3.25;;;;;;;24.88;39.72;100277.91;1973753;89;28636;-60
2021/06/11 13:43:07;;;;;;;6.45;3.33;;;;;;;24.95;39.68;100278.57;2056631;86;31120;-60
2021/06/11 13:46:09;;;;;;;4.92;2.87;;;;;;;25.05;39.28;100277.03;2056446;86;33016;-59
2021/06/11 13:49:11;;;;;;;4.12;3.12;;;;;;;25.11;39.28;100284.58;2065324;84;30014;-63
2021/06/11 13:52:13;;;;;;;3.40;2.87;;;;;;;25.17;39.33;100278.39;2101279;84;27517;-58
2021/06/11 13:55:16;;;;;;;3.42;2.90;;;;;;;25.32;39.43;100273.07;2101255;84;29602;-57
2021/06/11 13:58:18;;;;;;;6.83;3.25;;;;;;;25.44;39.19;100269.49;2087834;84;31980;-58
2021/06/11 14:01:20;;;;;;;5.03;3.02;;;;;;;25.60;38.65;100280.42;2071092;85;32591;-58
2021/06/11 14:04:22;;;;;;;4.00;2.83;;;;;;;25.66;38.24;100268.39;2071533;85;29284;-59
2021/06/11 14:07:27;;;;;;;3.65;3.35;;;;;;;25.67;38.17;100267.36;2074610;85;27513;-59
2021/06/11 14:10:29;;;;;;;6.87;3.50;;;;;;;25.68;38.42;100268.57;2095149;85;28715;-58
2021/06/11 14:13:31;;;;;;;3.62;2.83;;;;;;;25.66;38.22;100258.28;2095094;84;30990;-58
2021/06/11 14:16:33;;;;;;;4.60;2.52;;;;;;;25.68;38.38;100263.08;2095098;85;32939;-58